Estació municipal de Aiguafreda (Osona, P.N. del Montseny)

Consulta les dades en temps real de l'estació municipal de Aiguafreda





Hora UTC 07:45
Temperatura 24.5 ºC
Sòl 15 cm 23.1 ºC
Humitat 69.1 %
Pressió 1020.8 hPa
Pluja 0.0 mm
Velocitat vent 5.4 km/h
Direcció vent NE

Dades diàries 2026-09-04



Hora UTC (hivern +1h; estiu +2h)
Temperatura (ºC) Humitat (%) Pressió (hPa) Velocitat vent (km/h) Precipitació (mm)
Hora UTC Aire Sòl 15 cm Humitat Pressió Vel. Dir. Vel. Max Dir. Intent. màx 5 min.
00:05 20.7 19.4 86.8 1022.5 0.0 NNE 0.0 SE 0.0
00:10 20.6 19.3 87.0 1022.5 0.0 NNE 0.0 NW 0.0
00:15 20.6 19.3 87.3 1022.4 0.0 NNE 0.0 NW 0.0
00:20 20.5 19.3 87.4 1022.4 0.0 NNE 0.0 WNW 0.0
00:25 20.5 19.3 87.3 1022.3 0.0 NNE 0.0 W 0.0
00:30 20.4 19.1 87.5 1022.3 0.0 NNE 0.0 W 0.0
00:35 20.3 19.1 87.9 1022.3 0.0 NNE 0.0 W 0.0
00:40 20.3 19.0 88.0 1022.3 0.0 NNE 0.0 ENE 0.0
00:45 20.3 19.0 88.1 1022.3 0.0 NNE 0.0 N 0.0
00:50 20.2 18.9 88.0 1022.3 0.0 NNE 0.0 W 0.0
00:55 20.1 18.9 88.1 1022.2 0.0 NNE 0.0 W 0.0
01:00 20.1 18.8 88.4 1022.1 0.0 NNE 0.0 W 0.0
01:05 20.0 18.7 88.4 1022.1 0.0 NNE 0.0 W 0.0
01:10 20.0 18.6 88.5 1022.1 0.0 NNE 0.0 W 0.0
01:15 19.9 18.6 88.7 1022.0 0.0 NNE 0.0 W 0.0
01:20 19.8 18.5 88.8 1022.0 0.0 NNE 0.0 W 0.0
01:25 19.8 18.5 88.8 1021.9 0.0 NNE 0.0 W 0.0
01:30 19.8 18.5 88.9 1021.9 0.0 NNE 0.0 W 0.0
01:35 19.7 18.4 88.9 1021.9 0.0 NNE 0.0 W 0.0
01:40 19.6 18.3 89.1 1021.9 0.0 NNE 0.0 W 0.0
01:45 19.6 18.2 89.3 1021.9 0.0 NNE 0.0 W 0.0
01:50 19.5 18.2 89.4 1021.9 0.0 NNE 0.0 NE 0.0
01:55 19.5 18.1 89.6 1021.8 0.0 NNE 0.0 NE 0.0
02:00 19.5 18.1 89.7 1021.8 0.0 NNE 0.0 NE 0.0
02:05 19.4 18.0 89.7 1021.8 0.0 NNE 0.0 NNW 0.0
02:10 19.4 18.0 89.9 1021.7 0.0 NNE 0.0 WSW 0.0
02:15 19.3 17.9 89.9 1021.7 0.0 NNE 0.0 WSW 0.0
02:20 19.3 17.9 90.0 1021.7 0.0 NNE 0.0 ENE 0.0
02:25 19.2 17.8 90.1 1021.8 0.0 NNE 0.0 ENE 0.0
02:30 19.2 17.8 90.2 1021.7 0.0 NNE 0.0 ENE 0.0
02:35 19.1 17.7 90.3 1021.7 0.0 NNE 0.0 ENE 0.0
02:40 19.1 17.7 90.2 1021.7 0.0 NNE 0.0 W 0.0
02:45 19.1 17.7 90.1 1021.7 0.0 NNE 0.0 NW 0.0
02:50 19.1 17.7 90.2 1021.7 0.0 NNE 0.0 W 0.0
02:55 19.1 17.6 90.1 1021.6 0.0 NNE 0.0 NW 0.0
03:00 19.0 17.6 90.1 1021.6 0.0 NNE 0.0 NW 0.0
03:05 19.0 17.5 90.2 1021.6 0.0 NNE 0.0 NW 0.0
03:10 18.9 17.5 90.3 1021.6 0.0 NNE 0.0 NW 0.0
03:15 18.9 17.5 90.3 1021.6 0.0 NNE 0.0 NW 0.0
03:20 18.9 17.5 90.4 1021.5 0.0 NNE 0.0 WNW 0.0
03:25 18.9 17.5 90.5 1021.5 0.0 NNE 0.0 NNW 0.0
03:30 18.9 17.5 90.4 1021.4 0.0 NNE 0.0 NNW 0.0
03:35 18.8 17.4 90.4 1021.4 0.0 NNE 0.0 NNW 0.0
03:40 18.8 17.4 90.4 1021.4 0.0 NNE 0.0 WSW 0.0
03:45 18.7 17.4 90.4 1021.4 0.0 NNE 0.0 S 0.0
03:50 18.7 17.3 90.5 1021.4 0.0 NNE 0.0 S 0.0
03:55 18.7 17.3 90.6 1021.3 0.0 NNE 0.0 S 0.0
04:00 18.7 17.3 90.6 1021.2 0.0 NNE 0.0 S 0.0
04:05 18.7 17.3 90.6 1021.2 0.0 NNE 0.0 SW 0.0
04:10 18.6 17.2 90.6 1021.2 0.0 NNE 0.0 SW 0.0
04:15 18.6 17.1 90.6 1021.2 0.0 NNE 0.0 SW 0.0
04:20 18.5 17.1 90.6 1021.2 0.0 NNE 0.0 SW 0.0
04:25 18.5 17.0 90.6 1021.2 0.0 NNE 0.0 SW 0.0
04:30 18.4 17.0 90.7 1021.2 0.0 NNE 0.0 SW 0.0
04:35 18.4 16.9 90.7 1021.2 0.0 NNE 0.0 SW 0.0
04:40 18.4 16.9 90.8 1021.2 0.0 NNE 0.0 SW 0.0
04:45 18.3 16.8 90.9 1021.2 0.0 NNE 0.0 SW 0.0
04:50 18.3 16.8 90.9 1021.1 0.0 NNE 0.0 SW 0.0
04:55 18.2 16.7 91.0 1021.1 0.0 NNE 0.0 E 0.0
05:00 18.2 16.7 91.0 1021.1 0.0 NNE 0.0 E 0.0
05:05 18.2 16.7 91.0 1021.1 0.0 NNE 0.0 E 0.0
05:10 18.2 16.7 91.0 1021.0 0.0 NNE 0.0 NW 0.0
05:15 18.2 16.7 91.0 1021.0 0.0 NNE 0.0 SW 0.0
05:20 18.1 16.7 91.0 1021.0 0.0 NNE 0.0 SSW 0.0
05:25 18.1 16.7 90.9 1020.9 0.0 NNE 0.0 SE 0.0
05:30 18.1 16.7 90.9 1021.0 0.0 NNE 0.0 WNW 0.0
05:35 18.1 16.7 90.9 1020.9 0.0 NNE 0.0 WNW 0.0
05:40 18.1 16.7 90.9 1020.9 0.0 NNE 0.0 WNW 0.0
05:45 18.1 16.8 90.8 1020.9 0.0 NNE 0.0 SSW 0.0
05:50 18.2 16.8 90.7 1021.0 0.0 NNE 0.0 SSW 0.0
05:55 18.2 16.9 90.5 1021.0 0.0 NNE 0.0 SSW 0.0
06:00 18.2 17.0 90.4 1021.1 0.0 NNE 0.0 SSE 0.0
06:05 18.3 17.1 90.2 1021.1 0.0 NNE 0.0 SSE 0.0
06:10 18.3 17.3 90.0 1021.1 0.0 NNE 0.0 S 0.0
06:15 18.4 17.4 89.8 1021.1 0.0 NNE 0.0 S 0.0
06:20 18.5 17.5 89.5 1021.1 0.0 NNE 0.0 S 0.0
06:25 18.6 17.6 89.2 1021.0 0.0 NNE 0.0 SSE 0.0
06:30 18.7 17.9 88.8 1021.0 0.0 NNE 0.0 SE 0.0
06:35 18.9 18.1 88.3 1021.0 0.0 WSW 3.4 WSW 0.0
06:40 19.1 18.3 87.6 1021.0 0.0 NNE 0.0 S 0.0
06:45 19.6 18.6 87.6 1021.0 0.0 NNE 0.0 E 0.0
06:50 20.1 19.1 86.9 1020.9 4.3 NE 11.5 NE 0.0
06:55 20.6 19.7 85.1 1020.9 2.6 NE 8.8 NNE 0.0
07:00 21.0 20.1 83.3 1020.9 4.2 ENE 11.5 ENE 0.0
07:05 21.3 20.4 82.0 1020.9 2.7 NE 11.5 ENE 0.0
07:10 21.7 20.8 80.8 1020.8 5.4 NE 14.2 ENE 0.0
07:15 22.0 21.1 79.7 1020.8 2.1 ENE 8.8 N 0.0
07:20 22.3 21.3 78.5 1020.8 1.4 NE 11.5 NE 0.0
07:25 22.6 21.7 77.3 1020.8 2.3 ENE 11.5 ENE 0.0
07:30 22.9 22.0 76.0 1020.8 2.9 ENE 11.5 NNW 0.0
07:35 23.3 22.3 74.4 1020.8 5.4 ENE 14.2 ENE 0.0
07:40 23.8 22.7 72.6 1020.8 5.2 NE 11.5 NNE 0.0
07:45 24.5 23.1 69.1 1020.8 5.4 NE 14.2 NNE 0.0
Màxima 24.5 23.1 91.0 1022.5 5.4 NE 14.2 NNE 0.0
Mínima 18.1 16.7 69.1 1020.8
Total 0.0